createdAt,value
2023-02-05T00:00:31.031Z,15.82
2023-02-05T00:02:58.299Z,18.55
2023-02-05T00:05:25.546Z,18.92
2023-02-05T00:07:52.719Z,15.57
2023-02-05T00:10:19.995Z,15.40
2023-02-05T00:12:48.310Z,14.48
2023-02-05T00:15:15.539Z,12.00
2023-02-05T00:17:42.833Z,7.35
2023-02-05T00:20:10.383Z,7.05
2023-02-05T00:22:37.528Z,9.35
2023-02-05T00:25:04.783Z,10.82
2023-02-05T00:27:32.868Z,12.98
2023-02-05T00:30:00.056Z,17.33
2023-02-05T00:32:27.231Z,10.30
2023-02-05T00:34:54.376Z,12.25
2023-02-05T00:37:21.533Z,10.95
2023-02-05T00:39:48.675Z,12.52
2023-02-05T00:42:16.022Z,10.25
2023-02-05T00:44:43.238Z,8.23
2023-02-05T00:47:10.414Z,11.13
2023-02-05T00:49:37.539Z,11.75
2023-02-05T00:52:05.140Z,9.02
2023-02-05T00:54:32.376Z,8.07
2023-02-05T00:56:59.605Z,11.68
2023-02-05T00:59:26.893Z,8.90
2023-02-05T01:01:54.091Z,8.30
2023-02-05T01:04:21.272Z,8.50
2023-02-05T01:06:48.445Z,7.22
2023-02-05T01:09:15.571Z,9.98
2023-02-05T01:11:42.783Z,5.40
2023-02-05T01:14:10.011Z,7.05
2023-02-05T01:16:37.168Z,7.32
2023-02-05T01:19:04.351Z,7.45
2023-02-05T01:21:31.460Z,6.57
2023-02-05T01:24:00.023Z,6.38
2023-02-05T01:26:27.204Z,6.88
2023-02-05T01:28:54.328Z,6.80
2023-02-05T01:31:22.330Z,6.53
2023-02-05T01:33:49.637Z,6.45
2023-02-05T01:36:16.860Z,7.07
2023-02-05T01:38:43.987Z,5.15
2023-02-05T01:41:12.496Z,5.03
2023-02-05T01:43:39.692Z,6.30
2023-02-05T01:46:25.362Z,7.18
2023-02-05T01:48:54.430Z,7.20
2023-02-05T01:51:22.059Z,8.73
2023-02-05T01:53:49.899Z,6.93
2023-02-05T01:56:28.088Z,7.03
2023-02-05T01:58:56.827Z,4.88
2023-02-05T02:01:24.965Z,6.72
2023-02-05T02:03:52.671Z,5.85
2023-02-05T02:06:19.859Z,7.28
2023-02-05T02:08:47.045Z,5.47
2023-02-05T02:11:26.677Z,6.65
2023-02-05T02:13:55.606Z,8.57
2023-02-05T02:16:23.504Z,6.53
2023-02-05T02:18:50.892Z,7.40
2023-02-05T02:21:21.215Z,7.28
2023-02-05T02:24:07.065Z,8.20
2023-02-05T02:26:53.140Z,8.95
2023-02-05T02:29:42.750Z,12.25
2023-02-05T02:32:15.178Z,7.38
2023-02-05T02:34:46.318Z,5.95
2023-02-05T02:37:17.078Z,7.45
2023-02-05T02:40:04.511Z,9.40
2023-02-05T02:42:31.634Z,8.93
2023-02-05T02:45:01.098Z,8.63
2023-02-05T02:47:39.348Z,32.00
2023-02-05T02:50:10.119Z,18.02
2023-02-05T02:52:39.736Z,15.95
2023-02-05T02:55:09.547Z,20.55
2023-02-05T02:57:38.216Z,22.42
2023-02-05T03:00:07.481Z,21.27
2023-02-05T03:02:37.642Z,10.18
2023-02-05T03:05:07.710Z,8.45
2023-02-05T03:07:36.975Z,7.93
2023-02-05T03:10:08.701Z,7.28
2023-02-05T03:12:35.886Z,7.27
2023-02-05T03:15:03.433Z,8.20
2023-02-05T03:17:30.855Z,9.25
2023-02-05T03:20:27.513Z,10.10
2023-02-05T03:22:56.125Z,10.32
2023-02-05T03:25:24.081Z,10.60
2023-02-05T03:27:53.647Z,6.07
2023-02-05T03:30:21.243Z,7.22
2023-02-05T03:33:07.364Z,9.40
2023-02-05T03:35:43.507Z,5.75
2023-02-05T03:38:13.385Z,5.43
2023-02-05T03:40:46.726Z,11.38
2023-02-05T03:43:13.838Z,6.13
2023-02-05T03:45:40.934Z,6.80
2023-02-05T03:48:11.250Z,7.18
2023-02-05T03:50:41.481Z,8.90
2023-02-05T03:53:11.636Z,7.88
2023-02-05T03:55:41.781Z,11.18
2023-02-05T03:58:12.139Z,5.55
2023-02-05T04:00:40.527Z,7.60
2023-02-05T04:03:07.888Z,5.53
2023-02-05T04:05:35.465Z,7.03
2023-02-05T04:08:02.983Z,6.10
2023-02-05T04:10:30.146Z,7.38
2023-02-05T04:12:57.328Z,6.18
2023-02-05T04:15:25.517Z,5.72
2023-02-05T04:17:52.680Z,6.15
2023-02-05T04:20:19.835Z,7.80
2023-02-05T04:22:47.148Z,5.63
2023-02-05T04:25:14.329Z,7.90
2023-02-05T04:27:41.568Z,5.53
2023-02-05T04:30:08.990Z,6.43
2023-02-05T04:32:36.168Z,6.63
2023-02-05T04:35:03.315Z,6.20
2023-02-05T04:37:30.485Z,6.30
2023-02-05T04:39:57.653Z,8.18
2023-02-05T04:42:24.819Z,9.25
2023-02-05T04:44:54.311Z,8.77
2023-02-05T04:47:21.555Z,7.07
2023-02-05T04:49:48.758Z,6.05
2023-02-05T04:52:15.972Z,6.10
2023-02-05T04:54:43.222Z,4.93
2023-02-05T04:57:10.333Z,6.40
2023-02-05T04:59:37.505Z,4.90
2023-02-05T05:02:04.734Z,5.85
2023-02-05T05:04:31.974Z,6.57
2023-02-05T05:06:59.209Z,6.05
2023-02-05T05:09:26.444Z,5.90
2023-02-05T05:11:53.744Z,6.45
2023-02-05T05:14:21.016Z,4.38
2023-02-05T05:16:49.166Z,6.65
2023-02-05T05:19:16.508Z,7.30
2023-02-05T05:21:43.718Z,8.50
2023-02-05T05:24:10.856Z,5.65
2023-02-05T05:26:43.621Z,6.07
2023-02-05T05:29:11.506Z,7.80
2023-02-05T05:31:38.986Z,6.35
2023-02-05T05:34:06.232Z,6.18
2023-02-05T05:36:33.469Z,7.13
2023-02-05T05:39:20.602Z,8.15
2023-02-05T05:42:06.351Z,8.30
2023-02-05T05:44:33.569Z,7.97
2023-02-05T05:47:00.805Z,8.30
2023-02-05T05:49:28.020Z,10.30
2023-02-05T05:51:55.337Z,6.70
2023-02-05T05:54:22.558Z,8.65
2023-02-05T05:56:49.766Z,7.30
2023-02-05T05:59:16.979Z,8.15
2023-02-05T06:01:44.206Z,8.65
2023-02-05T06:04:11.486Z,9.10
2023-02-05T06:06:38.675Z,9.65
2023-02-05T06:09:05.904Z,12.50
2023-02-05T06:11:34.873Z,11.07
2023-02-05T06:14:02.153Z,13.85
2023-02-05T06:16:29.393Z,15.10
2023-02-05T06:18:56.690Z,11.50
2023-02-05T06:21:23.941Z,16.25
2023-02-05T06:23:51.118Z,10.60
2023-02-05T06:26:18.281Z,15.13
2023-02-05T06:28:45.597Z,10.95
2023-02-05T06:31:12.816Z,9.50
2023-02-05T06:33:40.032Z,11.13
2023-02-05T06:36:07.429Z,15.65
2023-02-05T06:38:34.613Z,21.95
2023-02-05T06:41:02.111Z,21.73
2023-02-05T06:43:29.369Z,26.08
2023-02-05T06:45:56.509Z,25.33
2023-02-05T06:48:23.610Z,21.50
2023-02-05T06:50:50.952Z,22.73
2023-02-05T06:53:18.174Z,20.58
2023-02-05T06:55:45.373Z,22.58
2023-02-05T06:58:12.534Z,19.27
2023-02-05T07:00:39.690Z,25.05
2023-02-05T07:03:07.031Z,19.88
2023-02-05T07:05:34.988Z,18.10
2023-02-05T07:08:04.166Z,25.48
2023-02-05T07:10:31.315Z,23.83
2023-02-05T07:12:58.540Z,21.05
2023-02-05T07:15:25.677Z,19.10
2023-02-05T07:17:52.856Z,21.17
2023-02-05T07:20:20.222Z,33.95
2023-02-05T07:22:47.408Z,40.58
2023-02-05T07:25:14.569Z,36.78
2023-02-05T07:27:41.852Z,36.22
2023-02-05T07:30:09.321Z,39.08
2023-02-05T07:32:36.493Z,27.40
2023-02-05T07:35:03.908Z,20.75
2023-02-05T07:37:31.411Z,25.23
2023-02-05T07:39:58.546Z,20.65
2023-02-05T07:42:25.849Z,19.85
2023-02-05T07:44:53.004Z,36.40
2023-02-05T07:47:20.216Z,50.50
2023-02-05T07:49:47.390Z,51.33
2023-02-05T07:52:14.639Z,69.63
2023-02-05T07:54:41.837Z,65.75
2023-02-05T07:57:09.053Z,58.28
2023-02-05T07:59:36.181Z,57.42
2023-02-05T08:02:03.415Z,43.88
2023-02-05T08:04:30.821Z,42.75
2023-02-05T08:06:57.952Z,41.17
2023-02-05T08:09:25.168Z,31.02
2023-02-05T08:11:52.322Z,33.83
2023-02-05T08:14:19.980Z,45.45
2023-02-05T08:16:47.185Z,25.40
2023-02-05T08:19:15.670Z,23.77
2023-02-05T08:21:43.529Z,21.70
2023-02-05T08:24:10.829Z,26.92
2023-02-05T08:26:38.157Z,21.88
2023-02-05T08:29:05.421Z,24.65
2023-02-05T08:31:32.645Z,18.85
2023-02-05T08:34:00.389Z,21.60
2023-02-05T08:36:27.650Z,21.17
2023-02-05T08:38:54.910Z,27.63
2023-02-05T08:41:22.060Z,18.00
2023-02-05T08:43:50.079Z,32.45
2023-02-05T08:46:19.336Z,20.63
2023-02-05T08:48:46.959Z,21.45
2023-02-05T08:51:15.049Z,25.70
2023-02-05T08:53:42.266Z,24.40
2023-02-05T08:56:10.924Z,16.85
2023-02-05T08:58:38.830Z,23.15
2023-02-05T09:01:07.535Z,20.40
2023-02-05T09:03:35.094Z,25.48
2023-02-05T09:06:05.264Z,20.70
2023-02-05T09:08:32.399Z,23.80
2023-02-05T09:10:59.602Z,16.17
2023-02-05T09:13:26.869Z,18.60
2023-02-05T09:15:54.159Z,21.27
2023-02-05T09:18:21.539Z,27.38
2023-02-05T09:20:49.488Z,32.60
2023-02-05T09:23:17.841Z,21.33
2023-02-05T09:25:45.062Z,18.98
2023-02-05T09:28:13.076Z,25.63
2023-02-05T09:30:41.746Z,17.63
2023-02-05T09:33:09.596Z,22.02
2023-02-05T09:35:37.080Z,20.85
2023-02-05T09:38:04.355Z,14.52
2023-02-05T09:40:35.285Z,20.52
2023-02-05T09:43:17.792Z,25.08
2023-02-05T09:45:48.077Z,21.30
2023-02-05T09:48:15.166Z,22.50
2023-02-05T09:50:43.001Z,23.17
2023-02-05T09:53:12.970Z,25.67
2023-02-05T09:55:44.778Z,47.80
2023-02-05T09:58:32.228Z,27.90
2023-02-05T10:01:04.753Z,20.58
2023-02-05T10:06:05.623Z,64.20
2023-02-05T10:08:46.254Z,31.02
2023-02-05T10:11:19.315Z,22.98
2023-02-05T10:13:47.581Z,21.17
2023-02-05T10:16:15.151Z,24.42
2023-02-05T10:19:01.167Z,25.00
2023-02-05T10:22:00.826Z,24.20
2023-02-05T10:24:30.746Z,19.83
2023-02-05T10:27:18.280Z,24.48
2023-02-05T10:29:58.149Z,18.60
2023-02-05T10:32:45.582Z,19.70
2023-02-05T10:35:20.118Z,22.60
2023-02-05T10:37:52.764Z,21.98
2023-02-05T10:42:52.077Z,18.40
2023-02-05T10:45:22.125Z,31.08
2023-02-05T10:48:04.442Z,25.75
2023-02-05T10:50:37.789Z,40.05
2023-02-05T10:53:04.954Z,33.00
2023-02-05T10:55:32.873Z,44.65
2023-02-05T10:58:02.877Z,36.28
2023-02-05T11:00:30.157Z,25.08
2023-02-05T11:02:59.027Z,32.15
2023-02-05T11:05:37.337Z,29.35
2023-02-05T11:08:04.631Z,31.30
2023-02-05T11:10:34.722Z,29.48
2023-02-05T11:13:03.843Z,31.17
2023-02-05T11:15:31.823Z,30.25
2023-02-05T11:18:06.712Z,27.55
2023-02-05T11:20:38.949Z,32.55
2023-02-05T11:23:12.298Z,26.63
2023-02-05T11:25:49.214Z,27.08
2023-02-05T11:28:20.775Z,43.97
2023-02-05T11:30:52.364Z,32.53
2023-02-05T11:33:25.494Z,30.33
2023-02-05T11:36:00.472Z,40.08
2023-02-05T11:38:31.566Z,31.73
2023-02-05T11:41:00.157Z,28.65
2023-02-05T11:43:29.282Z,23.50
2023-02-05T11:45:57.796Z,46.45
2023-02-05T11:48:43.351Z,74.82
2023-02-05T11:51:12.269Z,34.65
2023-02-05T11:53:44.822Z,26.38
2023-02-05T11:58:39.506Z,33.42
2023-02-05T12:01:20.927Z,28.35
2023-02-05T12:03:58.057Z,24.52
2023-02-05T12:06:28.953Z,33.22
2023-02-05T12:08:56.158Z,30.38
2023-02-05T12:11:23.301Z,28.10
2023-02-05T12:14:09.234Z,54.10
2023-02-05T12:16:36.369Z,27.73
2023-02-05T12:19:07.751Z,21.88
2023-02-05T12:21:34.918Z,31.70
2023-02-05T12:24:02.129Z,29.88
2023-02-05T12:26:29.198Z,33.10
2023-02-05T12:28:59.338Z,29.58
2023-02-05T12:31:29.227Z,25.35
2023-02-05T12:34:10.166Z,25.17
2023-02-05T12:36:58.351Z,24.80
2023-02-05T12:39:37.911Z,25.10
2023-02-05T12:42:09.312Z,27.42
2023-02-05T12:44:38.087Z,30.00
2023-02-05T12:47:24.640Z,30.23
2023-02-05T12:49:54.520Z,28.65
2023-02-05T12:52:31.066Z,28.15
2023-02-05T12:55:17.138Z,23.33
2023-02-05T12:57:50.712Z,20.23
2023-02-05T13:00:23.486Z,25.45
2023-02-05T13:02:55.269Z,23.23
2023-02-05T13:05:41.623Z,18.73
2023-02-05T13:08:27.630Z,17.38
2023-02-05T13:10:57.141Z,18.17
2023-02-05T13:13:30.557Z,19.27
2023-02-05T13:16:01.959Z,16.45
2023-02-05T13:18:38.906Z,19.13
2023-02-05T13:21:26.758Z,18.60
2023-02-05T13:24:20.600Z,16.17
2023-02-05T13:27:07.194Z,11.80
2023-02-05T13:29:39.558Z,16.00
2023-02-05T13:32:15.846Z,12.82
2023-02-05T13:34:43.938Z,10.07
2023-02-05T13:37:17.577Z,10.55
2023-02-05T13:39:57.006Z,15.35
2023-02-05T13:42:42.962Z,10.07
2023-02-05T13:45:29.048Z,13.38
2023-02-05T13:48:10.427Z,11.63
2023-02-05T13:50:55.010Z,11.23
2023-02-05T13:53:25.353Z,10.00
2023-02-05T13:56:11.458Z,8.45
2023-02-05T13:58:55.882Z,16.20
2023-02-05T14:01:49.590Z,7.93
2023-02-05T14:04:16.734Z,9.05
2023-02-05T14:06:45.030Z,8.23
2023-02-05T14:09:21.810Z,9.70
2023-02-05T14:11:56.879Z,6.95
2023-02-05T14:14:26.822Z,21.75
2023-02-05T14:16:55.047Z,9.85
2023-02-05T14:20:04.923Z,8.82
2023-02-05T14:22:47.561Z,8.88
2023-02-05T14:25:54.633Z,8.48
2023-02-05T14:28:45.870Z,9.32
2023-02-05T14:32:01.971Z,8.73
2023-02-05T14:35:01.785Z,8.40
2023-02-05T14:37:57.607Z,18.35
2023-02-05T14:40:56.149Z,26.17
2023-02-05T14:43:33.198Z,32.38
2023-02-05T14:49:17.913Z,25.13
2023-02-05T14:52:00.837Z,24.38
2023-02-05T14:54:41.134Z,16.63
2023-02-05T14:57:27.325Z,12.98
2023-02-05T15:03:43.504Z,12.55
2023-02-05T15:06:24.764Z,13.80
2023-02-05T15:09:10.407Z,11.32
2023-02-05T15:12:13.080Z,10.10
2023-02-05T15:15:06.979Z,9.38
2023-02-05T15:20:54.545Z,9.43
2023-02-05T15:23:55.615Z,11.32
2023-02-05T15:29:55.808Z,12.23
2023-02-05T15:32:59.440Z,11.00
2023-02-05T15:35:52.188Z,10.77
2023-02-05T15:41:31.061Z,10.25
2023-02-05T15:44:25.343Z,10.15
2023-02-05T15:46:57.489Z,12.82
2023-02-05T15:52:43.150Z,12.07
2023-02-05T15:55:32.580Z,10.98
2023-02-05T15:58:14.762Z,9.52
2023-02-05T16:01:13.468Z,11.17
2023-02-05T16:03:57.762Z,10.98
2023-02-05T16:06:42.669Z,13.60
2023-02-05T16:09:44.802Z,12.75
2023-02-05T16:12:25.103Z,13.90
2023-02-05T16:15:07.905Z,19.48
2023-02-05T16:17:51.173Z,21.38
2023-02-05T16:20:46.553Z,21.35
2023-02-05T16:23:48.138Z,25.15
2023-02-05T16:26:21.279Z,25.17
2023-02-05T16:28:48.589Z,19.85
2023-02-05T16:31:17.519Z,47.22
2023-02-05T16:33:55.559Z,21.95
2023-02-05T16:36:24.061Z,11.40
2023-02-05T16:39:02.573Z,14.45
2023-02-05T16:41:32.544Z,18.10
2023-02-05T16:44:01.453Z,16.40
2023-02-05T16:46:31.952Z,14.93
2023-02-05T16:49:03.549Z,13.00
2023-02-05T16:51:32.567Z,12.98
2023-02-05T16:54:00.747Z,13.13
2023-02-05T16:56:29.980Z,13.02
2023-02-05T16:58:58.548Z,13.77
2023-02-05T17:01:30.524Z,15.27
2023-02-05T17:03:58.051Z,15.70
2023-02-05T17:06:26.121Z,13.25
2023-02-05T17:08:55.274Z,15.32
2023-02-05T17:11:31.529Z,15.18
2023-02-05T17:14:17.652Z,13.85
2023-02-05T17:16:53.816Z,22.00
2023-02-05T17:19:31.217Z,15.80
2023-02-05T17:22:22.852Z,17.23
2023-02-05T17:24:51.911Z,18.20
2023-02-05T17:27:25.307Z,20.50
2023-02-05T17:29:52.554Z,19.95
2023-02-05T17:32:20.617Z,20.48
2023-02-05T17:34:48.286Z,19.45
2023-02-05T17:37:15.954Z,17.27
2023-02-05T17:39:43.214Z,17.35
2023-02-05T17:42:20.143Z,19.45
2023-02-05T17:44:47.253Z,21.35
2023-02-05T17:47:14.493Z,36.60
2023-02-05T17:49:42.391Z,84.53
2023-02-05T17:52:10.192Z,22.50
2023-02-05T17:54:37.460Z,22.90
2023-02-05T17:57:12.700Z,23.88
2023-02-05T17:59:40.806Z,20.83
2023-02-05T18:02:08.273Z,18.70
2023-02-05T18:04:35.414Z,20.83
2023-02-05T18:07:02.632Z,24.67
2023-02-05T18:09:29.770Z,23.33
2023-02-05T18:11:56.918Z,25.30
2023-02-05T18:14:25.175Z,27.20
2023-02-05T18:16:52.414Z,33.05
2023-02-05T18:19:19.619Z,32.47
2023-02-05T18:21:47.277Z,29.27
2023-02-05T18:24:15.100Z,24.65
2023-02-05T18:26:42.230Z,24.17
2023-02-05T18:29:09.457Z,25.17
2023-02-05T18:31:37.415Z,24.08
2023-02-05T18:34:04.830Z,103.88
2023-02-05T18:36:32.032Z,32.88
2023-02-05T18:38:59.264Z,22.48
2023-02-05T18:41:28.502Z,21.13
2023-02-05T18:43:56.076Z,24.13
2023-02-05T18:46:23.844Z,27.70
2023-02-05T18:48:51.304Z,26.58
2023-02-05T18:51:19.912Z,24.65
2023-02-05T18:53:47.668Z,19.52
2023-02-05T18:56:19.796Z,25.27
2023-02-05T18:58:51.771Z,24.65
2023-02-05T19:01:19.582Z,20.92
2023-02-05T19:03:47.046Z,19.83
2023-02-05T19:06:15.875Z,22.35
2023-02-05T19:08:43.535Z,21.08
2023-02-05T19:11:12.397Z,22.40
2023-02-05T19:13:40.762Z,20.27
2023-02-05T19:16:12.934Z,22.42
2023-02-05T19:18:44.055Z,20.27
2023-02-05T19:21:13.080Z,25.52
2023-02-05T19:23:40.984Z,25.67
2023-02-05T19:26:13.940Z,24.88
2023-02-05T19:28:43.651Z,28.35
2023-02-05T19:31:12.046Z,20.63
2023-02-05T19:33:39.748Z,20.38
2023-02-05T19:36:08.231Z,24.15
2023-02-05T19:38:39.132Z,23.98
2023-02-05T19:41:07.297Z,34.00
2023-02-05T19:43:34.497Z,58.78
2023-02-05T19:46:05.535Z,33.20
2023-02-05T19:48:32.894Z,28.50
2023-02-05T19:51:07.805Z,27.77
2023-02-05T19:53:36.145Z,25.17
2023-02-05T19:56:08.052Z,29.80
2023-02-05T19:58:35.998Z,30.77
2023-02-05T20:01:11.080Z,26.15
2023-02-05T20:03:38.289Z,27.90
2023-02-05T20:06:05.917Z,32.88
2023-02-05T20:08:33.325Z,34.92
2023-02-05T20:11:00.910Z,33.42
2023-02-05T20:13:31.830Z,138.48
2023-02-05T20:16:06.758Z,44.35
2023-02-05T20:18:34.500Z,39.15
2023-02-05T20:21:05.430Z,40.95
2023-02-05T20:23:33.433Z,41.80
2023-02-05T20:26:04.013Z,43.40
2023-02-05T20:28:32.281Z,32.88
2023-02-05T20:31:18.472Z,27.20
2023-02-05T20:33:49.939Z,30.65
2023-02-05T20:36:17.231Z,34.22
2023-02-05T20:38:44.402Z,33.88
2023-02-05T20:41:12.562Z,35.08
2023-02-05T20:43:39.747Z,34.20
2023-02-05T20:46:07.508Z,38.10
2023-02-05T20:48:34.825Z,38.72
2023-02-05T20:51:06.405Z,38.95
2023-02-05T20:53:33.655Z,42.58
2023-02-05T20:56:05.390Z,38.28
2023-02-05T20:58:32.894Z,43.23
2023-02-05T21:01:13.891Z,45.70
2023-02-05T21:03:43.735Z,47.80
2023-02-05T21:06:11.116Z,43.70
2023-02-05T21:08:39.389Z,49.03
2023-02-05T21:11:06.933Z,56.75
2023-02-05T21:13:34.645Z,52.80
2023-02-05T21:16:02.771Z,49.10
2023-02-05T21:18:30.607Z,49.05
2023-02-05T21:21:05.813Z,46.90
2023-02-05T21:23:32.975Z,46.83
2023-02-05T21:26:00.288Z,45.17
2023-02-05T21:28:27.730Z,44.03
2023-02-05T21:31:21.483Z,41.38
2023-02-05T21:33:48.787Z,41.67
2023-02-05T21:36:17.709Z,44.55
2023-02-05T21:38:44.958Z,40.97
2023-02-05T21:41:13.341Z,42.10
2023-02-05T21:43:40.771Z,38.88
2023-02-05T21:46:12.343Z,45.90
2023-02-05T21:48:39.678Z,35.92
2023-02-05T21:51:10.986Z,37.00
2023-02-05T21:53:38.223Z,37.50
2023-02-05T21:56:06.269Z,44.92
2023-02-05T21:58:37.332Z,48.05
2023-02-05T22:01:11.224Z,50.05
2023-02-05T22:03:38.433Z,51.83
2023-02-05T22:06:06.901Z,42.90
2023-02-05T22:08:37.598Z,44.58
2023-02-05T22:11:05.874Z,46.28
2023-02-05T22:13:37.508Z,47.72
2023-02-05T22:16:06.524Z,43.17
2023-02-05T22:18:34.420Z,38.17
2023-02-05T22:21:12.035Z,38.25
2023-02-05T22:23:39.791Z,39.25
2023-02-05T22:26:07.406Z,34.92
2023-02-05T22:28:34.856Z,33.63
2023-02-05T22:31:06.139Z,35.10
2023-02-05T22:33:33.909Z,35.70
2023-02-05T22:36:01.250Z,43.08
2023-02-05T22:38:28.536Z,47.65
2023-02-05T22:40:55.765Z,46.05
2023-02-05T22:43:22.934Z,40.70
2023-02-05T22:45:50.069Z,47.75
2023-02-05T22:48:17.276Z,47.50
2023-02-05T22:50:45.074Z,42.17
2023-02-05T22:53:12.855Z,40.08
2023-02-05T22:55:40.597Z,40.03
2023-02-05T22:58:07.879Z,43.63
2023-02-05T23:00:35.353Z,45.92
2023-02-05T23:03:02.768Z,43.55
2023-02-05T23:05:34.482Z,47.35
2023-02-05T23:08:01.837Z,52.05
2023-02-05T23:10:29.376Z,46.85
2023-02-05T23:12:57.124Z,51.88
2023-02-05T23:15:24.352Z,54.90
2023-02-05T23:17:51.753Z,49.95
2023-02-05T23:20:19.045Z,48.50
2023-02-05T23:22:46.190Z,47.25
2023-02-05T23:25:13.354Z,52.00
2023-02-05T23:27:41.544Z,47.58
2023-02-05T23:30:09.248Z,54.58
2023-02-05T23:32:36.466Z,52.58
2023-02-05T23:35:03.651Z,47.67
2023-02-05T23:37:31.029Z,46.08
2023-02-05T23:39:58.206Z,50.67
2023-02-05T23:42:25.405Z,48.67
2023-02-05T23:44:52.529Z,48.17
2023-02-05T23:47:19.731Z,48.25
2023-02-05T23:49:46.905Z,50.03
2023-02-05T23:52:14.062Z,50.05
2023-02-05T23:54:41.192Z,42.13
2023-02-05T23:57:08.488Z,44.92
2023-02-05T23:59:35.690Z,41.53
